createdAt,value
2023-10-10T00:00:36.779Z,32.53
2023-10-10T00:03:07.863Z,30.40
2023-10-10T00:05:37.438Z,32.33
2023-10-10T00:08:06.820Z,30.33
2023-10-10T00:10:35.416Z,30.10
2023-10-10T00:13:02.414Z,30.42
2023-10-10T00:15:39.117Z,33.78
2023-10-10T00:18:12.012Z,30.05
2023-10-10T00:20:59.794Z,34.75
2023-10-10T00:23:26.696Z,34.70
2023-10-10T00:25:54.406Z,33.72
2023-10-10T00:28:22.477Z,36.42
2023-10-10T00:30:50.856Z,36.90
2023-10-10T00:33:17.716Z,35.30
2023-10-10T00:35:45.939Z,37.40
2023-10-10T00:38:18.603Z,37.95
2023-10-10T00:40:48.468Z,36.10
2023-10-10T00:43:18.361Z,36.85
2023-10-10T00:45:53.087Z,40.17
2023-10-10T00:48:23.353Z,46.13
2023-10-10T00:50:57.259Z,39.88
2023-10-10T00:53:24.408Z,38.53
2023-10-10T00:56:01.352Z,35.85
2023-10-10T00:58:37.503Z,42.38
2023-10-10T01:01:13.678Z,36.78
2023-10-10T01:03:43.155Z,43.45
2023-10-10T01:06:27.018Z,38.35
2023-10-10T01:09:21.616Z,40.35
2023-10-10T01:11:50.278Z,38.60
2023-10-10T01:14:20.318Z,42.78
2023-10-10T01:16:48.983Z,41.03
2023-10-10T01:19:18.994Z,40.70
2023-10-10T01:21:51.966Z,42.75
2023-10-10T01:24:19.135Z,43.00
2023-10-10T01:26:46.415Z,44.88
2023-10-10T01:29:26.509Z,45.97
2023-10-10T01:31:54.860Z,36.05
2023-10-10T01:34:44.595Z,45.03
2023-10-10T01:37:22.059Z,48.30
2023-10-10T01:40:06.575Z,53.42
2023-10-10T01:42:40.072Z,45.30
2023-10-10T01:45:10.089Z,44.55
2023-10-10T01:47:40.956Z,44.80
2023-10-10T01:50:14.892Z,56.03
2023-10-10T01:52:48.024Z,51.35
2023-10-10T01:55:17.763Z,47.50
2023-10-10T01:57:44.594Z,49.03
2023-10-10T02:00:23.029Z,47.50
2023-10-10T02:02:54.464Z,45.53
2023-10-10T02:09:27.040Z,46.83
2023-10-10T02:12:13.152Z,42.22
2023-10-10T02:14:44.252Z,40.90
2023-10-10T02:17:25.809Z,38.47
2023-10-10T02:22:34.788Z,58.78
2023-10-10T02:25:20.785Z,60.97
2023-10-10T02:27:56.168Z,56.05
2023-10-10T02:30:36.129Z,68.32
2023-10-10T02:33:14.046Z,61.10
2023-10-10T02:35:56.366Z,68.60
2023-10-10T02:38:33.396Z,83.35
2023-10-10T02:41:23.740Z,67.47
2023-10-10T02:44:07.538Z,78.30
2023-10-10T02:46:40.474Z,84.18
2023-10-10T02:49:24.931Z,76.55
2023-10-10T02:51:56.608Z,81.10
2023-10-10T02:54:36.254Z,81.47
2023-10-10T02:57:26.572Z,91.82
2023-10-10T03:00:01.260Z,81.88
2023-10-10T03:02:42.046Z,82.95
2023-10-10T03:05:16.468Z,112.63
2023-10-10T03:07:45.655Z,78.95
2023-10-10T03:10:24.649Z,82.75
2023-10-10T03:12:53.675Z,95.93
2023-10-10T03:15:21.232Z,93.72
2023-10-10T03:18:13.729Z,97.35
2023-10-10T03:20:52.645Z,78.70
2023-10-10T03:23:19.173Z,85.68
2023-10-10T03:26:06.798Z,88.65
2023-10-10T03:28:48.467Z,81.28
2023-10-10T03:31:17.806Z,70.53
2023-10-10T03:33:44.774Z,73.88
2023-10-10T03:36:19.293Z,75.95
2023-10-10T03:38:50.849Z,72.72
2023-10-10T03:41:46.794Z,80.10
2023-10-10T03:44:31.794Z,76.32
2023-10-10T03:47:01.341Z,78.30
2023-10-10T03:49:47.751Z,76.38
2023-10-10T03:52:33.641Z,78.60
2023-10-10T03:55:18.801Z,78.93
2023-10-10T03:58:04.216Z,75.30
2023-10-10T04:00:49.854Z,59.65
2023-10-10T04:03:34.762Z,74.80
2023-10-10T04:06:24.077Z,69.18
2023-10-10T04:09:09.377Z,72.88
2023-10-10T04:11:54.148Z,66.53
2023-10-10T04:14:39.306Z,88.65
2023-10-10T04:17:24.293Z,73.03
2023-10-10T04:20:09.607Z,71.72
2023-10-10T04:22:54.406Z,62.53
2023-10-10T04:25:40.440Z,63.75
2023-10-10T04:28:25.540Z,58.97
2023-10-10T04:31:10.518Z,49.40
2023-10-10T04:33:55.413Z,61.22
2023-10-10T04:36:40.658Z,54.75
2023-10-10T04:39:25.826Z,57.42
2023-10-10T04:42:11.400Z,42.25
2023-10-10T04:44:56.368Z,58.53
2023-10-10T04:47:41.396Z,44.83
2023-10-10T04:50:26.810Z,51.00
2023-10-10T04:53:12.068Z,39.13
2023-10-10T04:56:00.343Z,51.08
2023-10-10T04:58:45.495Z,50.50
2023-10-10T05:01:30.436Z,42.20
2023-10-10T05:04:15.863Z,45.67
2023-10-10T05:07:01.549Z,41.78
2023-10-10T05:09:46.572Z,48.88
2023-10-10T05:12:31.520Z,38.97
2023-10-10T05:15:17.943Z,39.30
2023-10-10T05:18:03.199Z,47.00
2023-10-10T05:20:48.543Z,46.70
2023-10-10T05:23:34.052Z,39.40
2023-10-10T05:26:01.011Z,42.70
2023-10-10T05:28:33.143Z,43.95
2023-10-10T05:31:01.229Z,38.30
2023-10-10T05:33:27.988Z,38.72
2023-10-10T05:35:59.942Z,43.53
2023-10-10T05:38:26.697Z,43.90
2023-10-10T05:40:55.032Z,38.70
2023-10-10T05:43:28.255Z,34.40
2023-10-10T05:45:55.572Z,42.35
2023-10-10T05:48:22.888Z,39.70
2023-10-10T05:50:49.622Z,38.15
2023-10-10T05:53:18.315Z,38.63
2023-10-10T05:55:45.267Z,37.33
2023-10-10T05:58:14.203Z,32.13
2023-10-10T06:00:45.788Z,31.83
2023-10-10T06:05:45.684Z,35.60
2023-10-10T06:08:14.257Z,31.13
2023-10-10T06:10:41.326Z,27.02
2023-10-10T06:13:08.495Z,30.65
2023-10-10T06:15:36.163Z,31.65
2023-10-10T06:18:14.466Z,30.35
2023-10-10T06:23:22.317Z,32.90
2023-10-10T06:25:49.939Z,27.60
2023-10-10T06:28:27.998Z,24.75
2023-10-10T06:30:55.048Z,29.98
2023-10-10T06:33:29.509Z,21.55
2023-10-10T06:36:28.748Z,30.67
2023-10-10T06:39:05.773Z,30.58
2023-10-10T06:41:44.696Z,20.98
2023-10-10T06:44:40.687Z,31.00
2023-10-10T06:47:11.078Z,21.65
2023-10-10T06:49:58.651Z,24.85
2023-10-10T06:52:30.118Z,26.75
2023-10-10T06:54:57.423Z,27.00
2023-10-10T06:57:38.490Z,26.58
2023-10-10T07:00:21.603Z,22.42
2023-10-10T07:05:20.529Z,33.38
2023-10-10T07:07:53.595Z,26.73
2023-10-10T07:10:27.304Z,50.63
2023-10-10T07:13:00.137Z,36.90
2023-10-10T07:15:36.311Z,22.48
2023-10-10T07:18:09.968Z,21.40
2023-10-10T07:20:56.611Z,26.75
2023-10-10T07:23:40.058Z,25.17
2023-10-10T07:26:26.250Z,21.50
2023-10-10T07:28:57.715Z,14.75
2023-10-10T07:31:25.871Z,18.30
2023-10-10T07:34:05.289Z,18.00
2023-10-10T07:36:34.908Z,18.02
2023-10-10T07:39:20.285Z,20.25
2023-10-10T07:41:47.022Z,19.33
2023-10-10T07:44:23.593Z,19.10
2023-10-10T07:47:20.460Z,25.85
2023-10-10T07:49:52.073Z,13.57
2023-10-10T07:52:21.617Z,21.67
2023-10-10T07:54:53.016Z,17.77
2023-10-10T07:57:30.882Z,21.85
2023-10-10T07:59:59.506Z,18.23
2023-10-10T08:02:33.042Z,16.75
2023-10-10T08:05:11.129Z,16.63
2023-10-10T08:07:38.078Z,20.02
2023-10-10T08:10:23.135Z,16.33
2023-10-10T08:12:50.021Z,13.77
2023-10-10T08:15:26.099Z,15.93
2023-10-10T08:17:55.472Z,22.02
2023-10-10T08:20:42.887Z,21.73
2023-10-10T08:23:09.669Z,19.08
2023-10-10T08:25:39.499Z,9.57
2023-10-10T08:28:06.725Z,16.65
2023-10-10T08:30:34.154Z,10.48
2023-10-10T08:33:01.642Z,12.00
2023-10-10T08:35:32.050Z,11.85
2023-10-10T08:37:59.232Z,13.60
2023-10-10T08:40:35.493Z,13.90
2023-10-10T08:43:05.103Z,11.52
2023-10-10T08:45:40.996Z,13.07
2023-10-10T08:48:14.359Z,14.07
2023-10-10T08:50:42.218Z,11.20
2023-10-10T08:53:17.806Z,15.73
2023-10-10T08:55:44.551Z,11.93
2023-10-10T08:58:14.236Z,12.85
2023-10-10T09:00:40.945Z,7.75
2023-10-10T09:03:10.830Z,11.98
2023-10-10T09:05:37.856Z,8.75
2023-10-10T09:08:28.302Z,9.85
2023-10-10T09:10:59.821Z,9.73
2023-10-10T09:13:33.177Z,7.90
2023-10-10T09:15:59.790Z,10.98
2023-10-10T09:18:29.511Z,11.93
2023-10-10T09:21:22.097Z,6.38
2023-10-10T09:24:14.420Z,8.43
2023-10-10T09:26:43.938Z,10.45
2023-10-10T09:29:17.513Z,13.70
2023-10-10T09:31:46.992Z,16.83
2023-10-10T09:34:19.634Z,27.50
2023-10-10T09:36:57.555Z,11.10
2023-10-10T09:39:41.229Z,9.63
2023-10-10T09:42:27.736Z,13.85
2023-10-10T09:45:01.933Z,9.38
2023-10-10T09:47:47.671Z,15.55
2023-10-10T09:50:23.785Z,7.70
2023-10-10T09:52:54.979Z,12.68
2023-10-10T09:55:26.805Z,14.90
2023-10-10T09:58:06.587Z,8.38
2023-10-10T10:00:38.640Z,4.47
2023-10-10T10:03:28.842Z,8.98
2023-10-10T10:06:01.574Z,9.60
2023-10-10T10:08:39.595Z,3.97
2023-10-10T10:11:14.624Z,7.85
2023-10-10T10:14:21.834Z,6.90
2023-10-10T10:16:55.619Z,10.15
2023-10-10T10:19:29.118Z,7.32
2023-10-10T10:22:09.458Z,13.77
2023-10-10T10:25:09.230Z,4.68
2023-10-10T10:27:36.814Z,7.38
2023-10-10T10:30:20.534Z,9.25
2023-10-10T10:32:55.457Z,8.02
2023-10-10T10:35:23.570Z,6.18
2023-10-10T10:38:00.432Z,8.57
2023-10-10T10:40:43.316Z,5.70
2023-10-10T10:43:17.365Z,8.73
2023-10-10T10:46:08.046Z,8.18
2023-10-10T10:48:36.191Z,6.65
2023-10-10T10:51:24.266Z,10.00
2023-10-10T10:54:00.480Z,10.88
2023-10-10T10:56:34.818Z,5.57
2023-10-10T10:59:21.870Z,13.68
2023-10-10T11:01:53.876Z,7.63
2023-10-10T11:04:45.125Z,8.00
2023-10-10T11:07:28.327Z,8.85
2023-10-10T11:09:55.698Z,6.43
2023-10-10T11:12:32.881Z,6.13
2023-10-10T11:15:06.986Z,10.00
2023-10-10T11:17:42.122Z,9.43
2023-10-10T11:20:29.233Z,8.85
2023-10-10T11:23:14.181Z,9.93
2023-10-10T11:25:59.879Z,9.65
2023-10-10T11:28:58.668Z,8.77
2023-10-10T11:31:25.572Z,8.27
2023-10-10T11:34:12.683Z,7.05
2023-10-10T11:36:39.753Z,9.00
2023-10-10T11:39:32.324Z,7.55
2023-10-10T11:42:05.082Z,8.73
2023-10-10T11:44:34.592Z,9.43
2023-10-10T11:47:20.257Z,7.05
2023-10-10T11:50:06.674Z,4.88
2023-10-10T11:52:36.349Z,8.45
2023-10-10T11:55:09.672Z,6.88
2023-10-10T11:57:36.398Z,7.13
2023-10-10T12:00:24.452Z,8.30
2023-10-10T12:02:56.750Z,6.40
2023-10-10T12:05:30.017Z,8.95
2023-10-10T12:08:01.815Z,10.80
2023-10-10T12:10:52.954Z,14.48
2023-10-10T12:13:32.352Z,6.28
2023-10-10T12:16:00.996Z,8.52
2023-10-10T12:18:31.803Z,7.88
2023-10-10T12:20:59.635Z,8.80
2023-10-10T12:23:26.544Z,4.78
2023-10-10T12:26:02.440Z,6.95
2023-10-10T12:28:32.098Z,12.40
2023-10-10T12:31:02.224Z,8.20
2023-10-10T12:33:28.976Z,5.57
2023-10-10T12:35:58.157Z,5.93
2023-10-10T12:38:26.196Z,7.93
2023-10-10T12:40:53.937Z,12.38
2023-10-10T12:43:22.241Z,5.57
2023-10-10T12:45:48.835Z,8.43
2023-10-10T12:48:16.065Z,6.75
2023-10-10T12:50:42.966Z,9.77
2023-10-10T12:53:10.347Z,5.13
2023-10-10T12:55:47.785Z,4.85
2023-10-10T12:58:17.101Z,6.43
2023-10-10T13:00:51.437Z,4.88
2023-10-10T13:03:31.665Z,8.10
2023-10-10T13:06:00.138Z,6.95
2023-10-10T13:08:39.605Z,4.50
2023-10-10T13:11:13.717Z,13.27
2023-10-10T13:13:46.649Z,6.05
2023-10-10T13:16:26.523Z,4.90
2023-10-10T13:18:55.836Z,7.30
2023-10-10T13:21:22.741Z,3.58
2023-10-10T13:23:54.821Z,7.53
2023-10-10T13:26:24.022Z,9.13
2023-10-10T13:28:50.723Z,6.15
2023-10-10T13:31:19.635Z,5.93
2023-10-10T13:33:46.715Z,4.40
2023-10-10T13:36:16.295Z,4.95
2023-10-10T13:38:50.892Z,6.50
2023-10-10T13:41:23.034Z,7.13
2023-10-10T13:43:54.046Z,9.10
2023-10-10T13:46:25.533Z,7.85
2023-10-10T13:51:42.337Z,10.23
2023-10-10T13:54:09.016Z,5.07
2023-10-10T13:56:35.775Z,6.28
2023-10-10T13:59:02.508Z,6.57
2023-10-10T14:01:32.324Z,4.97
2023-10-10T14:04:15.253Z,5.22
2023-10-10T14:06:49.213Z,5.80
2023-10-10T14:09:26.817Z,5.97
2023-10-10T14:11:58.622Z,6.75
2023-10-10T14:14:25.433Z,10.60
2023-10-10T14:16:58.204Z,3.97
2023-10-10T14:19:25.365Z,6.65
2023-10-10T14:21:56.395Z,3.88
2023-10-10T14:24:23.187Z,6.80
2023-10-10T14:26:50.510Z,5.80
2023-10-10T14:29:17.978Z,6.00
2023-10-10T14:31:47.101Z,5.65
2023-10-10T14:34:22.118Z,9.93
2023-10-10T14:36:53.215Z,7.25
2023-10-10T14:39:29.905Z,8.57
2023-10-10T14:42:00.273Z,3.92
2023-10-10T14:44:29.558Z,5.72
2023-10-10T14:46:59.223Z,7.57
2023-10-10T14:49:32.905Z,5.18
2023-10-10T14:52:08.208Z,10.00
2023-10-10T14:54:50.301Z,7.13
2023-10-10T14:57:26.109Z,6.35
2023-10-10T14:59:57.018Z,6.20
2023-10-10T15:02:27.770Z,6.00
2023-10-10T15:04:56.016Z,7.57
2023-10-10T15:07:23.043Z,4.70
2023-10-10T15:09:49.582Z,5.78
2023-10-10T15:12:16.172Z,6.53
2023-10-10T15:14:43.972Z,6.75
2023-10-10T15:17:11.350Z,5.05
2023-10-10T15:19:42.180Z,3.97
2023-10-10T15:22:16.868Z,6.40
2023-10-10T15:24:43.540Z,7.28
2023-10-10T15:27:11.604Z,5.22
2023-10-10T15:29:43.596Z,6.85
2023-10-10T15:32:14.455Z,9.02
2023-10-10T15:34:42.715Z,3.95
2023-10-10T15:37:16.188Z,5.32
2023-10-10T15:39:42.930Z,5.78
2023-10-10T15:42:12.255Z,7.47
2023-10-10T15:44:42.359Z,5.63
2023-10-10T15:47:09.357Z,5.97
2023-10-10T15:49:37.158Z,10.15
2023-10-10T15:52:05.968Z,6.65
2023-10-10T15:54:39.169Z,8.50
2023-10-10T15:57:09.888Z,7.60
2023-10-10T15:59:42.988Z,8.35
2023-10-10T16:02:11.280Z,6.70
2023-10-10T16:04:44.335Z,7.43
2023-10-10T16:07:12.195Z,9.70
2023-10-10T16:09:38.830Z,12.75
2023-10-10T16:12:09.252Z,7.15
2023-10-10T16:14:38.044Z,8.98
2023-10-10T16:17:05.160Z,10.15
2023-10-10T16:19:33.791Z,6.75
2023-10-10T16:22:05.126Z,7.30
2023-10-10T16:24:33.073Z,11.32
2023-10-10T16:27:03.555Z,7.45
2023-10-10T16:29:36.714Z,12.52
2023-10-10T16:32:09.801Z,13.25
2023-10-10T16:34:41.403Z,11.65
2023-10-10T16:37:10.929Z,8.88
2023-10-10T16:39:45.314Z,10.20
2023-10-10T16:42:12.804Z,9.20
2023-10-10T16:44:39.572Z,8.63
2023-10-10T16:47:07.263Z,7.05
2023-10-10T16:49:38.205Z,7.18
2023-10-10T16:52:07.221Z,9.45
2023-10-10T16:54:37.041Z,10.10
2023-10-10T16:57:06.755Z,10.43
2023-10-10T16:59:33.533Z,8.93
2023-10-10T17:02:00.611Z,10.15
2023-10-10T17:04:27.289Z,10.00
2023-10-10T17:06:58.030Z,10.80
2023-10-10T17:09:30.618Z,12.35
2023-10-10T17:12:06.816Z,11.52
2023-10-10T17:14:38.723Z,11.75
2023-10-10T17:17:05.583Z,14.25
2023-10-10T17:19:32.779Z,8.30
2023-10-10T17:22:00.313Z,8.98
2023-10-10T17:24:27.878Z,10.25
2023-10-10T17:26:55.209Z,11.15
2023-10-10T17:29:25.122Z,18.08
2023-10-10T17:31:54.172Z,14.35
2023-10-10T17:34:23.064Z,12.70
2023-10-10T17:36:51.478Z,12.20
2023-10-10T17:39:18.415Z,13.25
2023-10-10T17:41:48.964Z,10.25
2023-10-10T17:44:18.104Z,11.52
2023-10-10T17:46:46.266Z,10.75
2023-10-10T17:49:13.121Z,13.30
2023-10-10T17:51:39.749Z,14.77
2023-10-10T17:54:06.615Z,13.73
2023-10-10T17:56:34.526Z,13.68
2023-10-10T17:59:01.676Z,11.80
2023-10-10T18:01:30.230Z,13.98
2023-10-10T18:03:57.387Z,11.43
2023-10-10T18:06:25.243Z,12.90
2023-10-10T18:08:54.673Z,12.30
2023-10-10T18:11:22.089Z,15.90
2023-10-10T18:13:50.920Z,16.70
2023-10-10T18:16:22.497Z,15.18
2023-10-10T18:18:51.461Z,18.25
2023-10-10T18:21:20.639Z,14.43
2023-10-10T18:23:47.481Z,15.27
2023-10-10T18:26:18.635Z,11.98
2023-10-10T18:28:45.174Z,15.40
2023-10-10T18:31:15.462Z,16.52
2023-10-10T18:33:43.142Z,15.15
2023-10-10T18:36:13.056Z,13.70
2023-10-10T18:38:39.931Z,19.23
2023-10-10T18:41:06.916Z,15.93
2023-10-10T18:43:33.721Z,12.00
2023-10-10T18:46:06.431Z,18.55
2023-10-10T18:48:38.303Z,14.68
2023-10-10T18:51:10.881Z,12.02
2023-10-10T18:53:37.672Z,12.02
2023-10-10T18:56:06.703Z,14.30
2023-10-10T18:58:34.142Z,14.38
2023-10-10T19:01:02.301Z,16.42
2023-10-10T19:03:29.198Z,19.55
2023-10-10T19:05:55.900Z,12.05
2023-10-10T19:08:23.742Z,16.48
2023-10-10T19:10:53.279Z,12.38
2023-10-10T19:13:19.828Z,20.10
2023-10-10T19:15:49.336Z,14.80
2023-10-10T19:18:17.205Z,13.77
2023-10-10T19:20:44.653Z,22.52
2023-10-10T19:23:13.757Z,16.40
2023-10-10T19:25:47.502Z,17.58
2023-10-10T19:28:18.882Z,16.90
2023-10-10T19:30:46.189Z,20.30
2023-10-10T19:33:16.138Z,21.05
2023-10-10T19:35:46.725Z,16.55
2023-10-10T19:38:13.647Z,18.92
2023-10-10T19:40:45.062Z,24.85
2023-10-10T19:43:14.156Z,15.48
2023-10-10T19:45:41.306Z,16.20
2023-10-10T19:48:08.464Z,22.40
2023-10-10T19:50:40.574Z,21.70
2023-10-10T19:53:07.215Z,15.88
2023-10-10T19:55:35.213Z,20.10
2023-10-10T19:58:02.371Z,23.23
2023-10-10T20:00:28.931Z,15.75
2023-10-10T20:02:58.746Z,22.40
2023-10-10T20:05:25.546Z,21.90
2023-10-10T20:07:54.963Z,20.40
2023-10-10T20:10:23.538Z,17.33
2023-10-10T20:12:56.211Z,20.25
2023-10-10T20:15:26.096Z,22.13
2023-10-10T20:17:53.403Z,20.63
2023-10-10T20:20:27.014Z,20.35
2023-10-10T20:22:57.775Z,18.70
2023-10-10T20:25:24.990Z,21.00
2023-10-10T20:27:51.851Z,22.45
2023-10-10T20:30:20.455Z,26.48
2023-10-10T20:32:54.756Z,20.90
2023-10-10T20:35:25.937Z,27.92
2023-10-10T20:37:57.239Z,24.80
2023-10-10T20:40:30.694Z,25.67
2023-10-10T20:43:01.985Z,23.50
2023-10-10T20:45:30.439Z,24.58
2023-10-10T20:47:58.468Z,23.02
2023-10-10T20:50:30.058Z,24.00
2023-10-10T20:53:00.464Z,23.50
2023-10-10T20:55:28.746Z,23.20
2023-10-10T20:57:57.536Z,24.05
2023-10-10T21:00:29.764Z,28.02
2023-10-10T21:03:09.990Z,21.77
2023-10-10T21:05:46.269Z,23.67
2023-10-10T21:08:12.984Z,21.17
2023-10-10T21:10:41.696Z,24.20
2023-10-10T21:13:08.793Z,20.88
2023-10-10T21:15:35.348Z,23.40
2023-10-10T21:18:02.019Z,25.95
2023-10-10T21:20:31.733Z,21.98
2023-10-10T21:23:00.156Z,22.92
2023-10-10T21:25:27.272Z,22.83
2023-10-10T21:27:57.939Z,26.10
2023-10-10T21:30:29.466Z,28.52
2023-10-10T21:32:57.060Z,33.22
2023-10-10T21:35:31.871Z,26.33
2023-10-10T21:38:03.973Z,23.20
2023-10-10T21:40:32.919Z,29.58
2023-10-10T21:43:00.602Z,31.10
2023-10-10T21:45:27.212Z,28.80
2023-10-10T21:47:55.785Z,29.40
2023-10-10T21:50:24.340Z,24.63
2023-10-10T21:52:51.812Z,31.77
2023-10-10T21:55:20.148Z,29.63
2023-10-10T21:57:50.905Z,27.58
2023-10-10T22:00:25.663Z,29.10
2023-10-10T22:02:53.517Z,31.17
2023-10-10T22:05:20.446Z,31.90
2023-10-10T22:07:48.480Z,37.25
2023-10-10T22:10:22.304Z,33.97
2023-10-10T22:12:56.556Z,29.17
2023-10-10T22:15:26.635Z,30.88
2023-10-10T22:17:58.625Z,44.83
2023-10-10T22:20:28.867Z,35.47
2023-10-10T22:22:55.784Z,30.13
2023-10-10T22:25:23.169Z,31.80
2023-10-10T22:27:53.083Z,38.03
2023-10-10T22:30:27.151Z,31.25
2023-10-10T22:32:55.948Z,35.53
2023-10-10T22:35:23.402Z,31.05
2023-10-10T22:37:54.121Z,31.85
2023-10-10T22:40:26.854Z,32.03
2023-10-10T22:43:02.640Z,39.63
2023-10-10T22:45:34.110Z,34.05
2023-10-10T22:48:03.180Z,32.67
2023-10-10T22:50:33.360Z,38.85
2023-10-10T22:53:06.287Z,34.80
2023-10-10T22:55:34.915Z,32.67
2023-10-10T22:58:07.658Z,34.47
2023-10-10T23:00:38.469Z,35.25
2023-10-10T23:03:10.486Z,28.80
2023-10-10T23:05:40.001Z,33.35
2023-10-10T23:08:07.212Z,33.05
2023-10-10T23:10:42.342Z,35.53
2023-10-10T23:13:09.020Z,32.58
2023-10-10T23:15:38.076Z,36.72
2023-10-10T23:18:06.202Z,35.33
2023-10-10T23:20:34.726Z,37.38
2023-10-10T23:23:05.743Z,36.47
2023-10-10T23:25:32.815Z,34.88
2023-10-10T23:28:00.696Z,37.40
2023-10-10T23:30:28.726Z,37.35
2023-10-10T23:32:57.277Z,33.20
2023-10-10T23:35:26.498Z,39.30
2023-10-10T23:37:55.643Z,38.55
2023-10-10T23:40:23.633Z,32.03
2023-10-10T23:42:54.567Z,37.30
2023-10-10T23:45:25.636Z,35.42
2023-10-10T23:47:58.409Z,38.22
2023-10-10T23:50:26.454Z,38.45
2023-10-10T23:52:57.354Z,34.97
2023-10-10T23:55:25.857Z,37.58
2023-10-10T23:57:55.668Z,40.33
